sensor_id;sensor_type;location;lat;lon;timestamp;pressure;altitude;pressure_sealevel;temperature;humidity
15489;BME280;7846;48.830;9.116;2022-09-09T00:00:12;97490.34;;;21.43;53.88
15489;BME280;7846;48.830;9.116;2022-09-09T00:02:38;97496.50;;;21.32;54.66
15489;BME280;7846;48.830;9.116;2022-09-09T00:05:16;97476.63;;;21.51;53.39
15489;BME280;7846;48.830;9.116;2022-09-09T00:07:49;97492.66;;;21.63;53.08
15489;BME280;7846;48.830;9.116;2022-09-09T00:10:28;97494.44;;;21.45;53.75
15489;BME280;7846;48.830;9.116;2022-09-09T00:15:57;97473.13;;;21.15;53.38
15489;BME280;7846;48.830;9.116;2022-09-09T00:21:06;97486.00;;;20.83;54.46
15489;BME280;7846;48.830;9.116;2022-09-09T00:23:39;97473.56;;;21.24;52.93
15489;BME280;7846;48.830;9.116;2022-09-09T00:26:40;97482.09;;;21.44;52.04
15489;BME280;7846;48.830;9.116;2022-09-09T00:31:34;97477.66;;;21.50;51.40
15489;BME280;7846;48.830;9.116;2022-09-09T00:34:12;97479.72;;;21.60;51.39
15489;BME280;7846;48.830;9.116;2022-09-09T00:36:40;97473.94;;;21.51;51.57
15489;BME280;7846;48.830;9.116;2022-09-09T00:42:16;97476.22;;;21.71;50.95
15489;BME280;7846;48.830;9.116;2022-09-09T00:44:56;97471.66;;;21.71;51.07
15489;BME280;7846;48.830;9.116;2022-09-09T00:47:40;97467.31;;;21.82;50.70
15489;BME280;7846;48.830;9.116;2022-09-09T00:50:27;97474.03;;;21.56;51.87
15489;BME280;7846;48.830;9.116;2022-09-09T00:53:09;97467.19;;;21.48;51.79
15489;BME280;7846;48.830;9.116;2022-09-09T00:55:42;97470.81;;;21.83;51.51
15489;BME280;7846;48.830;9.116;2022-09-09T00:58:12;97477.50;;;21.68;51.71
15489;BME280;7846;48.830;9.116;2022-09-09T01:00:46;97476.84;;;21.49;52.48
15489;BME280;7846;48.830;9.116;2022-09-09T01:03:21;97488.72;;;21.30;52.87
15489;BME280;7846;48.830;9.116;2022-09-09T01:06:00;97483.34;;;21.30;52.56
15489;BME280;7846;48.830;9.116;2022-09-09T01:11:21;97475.59;;;22.21;51.16
15489;BME280;7846;48.830;9.116;2022-09-09T01:13:49;97479.44;;;22.25;50.71
15489;BME280;7846;48.830;9.116;2022-09-09T01:16:18;97480.41;;;22.07;50.88
15489;BME280;7846;48.830;9.116;2022-09-09T01:24:43;97474.75;;;22.32;50.73
15489;BME280;7846;48.830;9.116;2022-09-09T01:27:14;97479.25;;;22.03;51.26
15489;BME280;7846;48.830;9.116;2022-09-09T01:29:45;97478.44;;;22.14;51.19
15489;BME280;7846;48.830;9.116;2022-09-09T01:37:51;97486.56;;;21.79;51.48
15489;BME280;7846;48.830;9.116;2022-09-09T01:40:17;97491.97;;;21.56;52.07
15489;BME280;7846;48.830;9.116;2022-09-09T01:42:43;97489.16;;;21.50;52.33
15489;BME280;7846;48.830;9.116;2022-09-09T01:45:09;97499.81;;;21.86;51.55
15489;BME280;7846;48.830;9.116;2022-09-09T01:47:37;97493.69;;;22.02;51.47
15489;BME280;7846;48.830;9.116;2022-09-09T01:50:06;97493.19;;;21.88;51.90
15489;BME280;7846;48.830;9.116;2022-09-09T01:52:34;97478.22;;;21.64;51.97
15489;BME280;7846;48.830;9.116;2022-09-09T01:55:01;97482.25;;;21.78;51.90
15489;BME280;7846;48.830;9.116;2022-09-09T01:57:31;97493.13;;;21.60;52.43
15489;BME280;7846;48.830;9.116;2022-09-09T02:00:08;97493.22;;;21.65;52.41
15489;BME280;7846;48.830;9.116;2022-09-09T02:03:17;97483.00;;;21.26;53.39
15489;BME280;7846;48.830;9.116;2022-09-09T02:08:36;97476.00;;;21.61;52.59
15489;BME280;7846;48.830;9.116;2022-09-09T02:11:13;97485.94;;;21.37;53.01
15489;BME280;7846;48.830;9.116;2022-09-09T02:13:39;97492.06;;;21.02;53.62
15489;BME280;7846;48.830;9.116;2022-09-09T02:16:13;97500.56;;;20.87;54.25
15489;BME280;7846;48.830;9.116;2022-09-09T02:19:01;97501.41;;;20.88;54.33
15489;BME280;7846;48.830;9.116;2022-09-09T02:21:30;97496.72;;;20.95;54.56
15489;BME280;7846;48.830;9.116;2022-09-09T02:23:59;97488.22;;;21.10;54.00
15489;BME280;7846;48.830;9.116;2022-09-09T02:26:33;97480.91;;;20.82;54.79
15489;BME280;7846;48.830;9.116;2022-09-09T02:29:02;97495.00;;;20.89;54.54
15489;BME280;7846;48.830;9.116;2022-09-09T02:31:28;97501.00;;;20.72;55.16
15489;BME280;7846;48.830;9.116;2022-09-09T02:33:59;97495.59;;;20.19;56.53
15489;BME280;7846;48.830;9.116;2022-09-09T02:36:29;97499.88;;;20.20;56.75
15489;BME280;7846;48.830;9.116;2022-09-09T02:38:59;97487.44;;;20.44;56.55
15489;BME280;7846;48.830;9.116;2022-09-09T02:41:32;97499.00;;;20.56;56.01
15489;BME280;7846;48.830;9.116;2022-09-09T02:43:57;97495.63;;;20.61;55.93
15489;BME280;7846;48.830;9.116;2022-09-09T02:52:09;97463.78;;;20.59;55.67
15489;BME280;7846;48.830;9.116;2022-09-09T02:54:41;97470.31;;;20.33;56.53
15489;BME280;7846;48.830;9.116;2022-09-09T02:57:13;97478.91;;;20.35;56.81
15489;BME280;7846;48.830;9.116;2022-09-09T02:59:40;97460.00;;;20.48;56.15
15489;BME280;7846;48.830;9.116;2022-09-09T03:02:07;97467.25;;;20.60;55.52
15489;BME280;7846;48.830;9.116;2022-09-09T03:04:32;97466.00;;;20.62;55.50
15489;BME280;7846;48.830;9.116;2022-09-09T03:06:58;97458.13;;;20.49;55.96
15489;BME280;7846;48.830;9.116;2022-09-09T03:09:25;97458.13;;;20.37;55.86
15489;BME280;7846;48.830;9.116;2022-09-09T03:11:55;97454.72;;;20.72;55.39
15489;BME280;7846;48.830;9.116;2022-09-09T03:14:22;97450.78;;;20.74;55.17
15489;BME280;7846;48.830;9.116;2022-09-09T03:16:53;97440.41;;;20.54;55.45
15489;BME280;7846;48.830;9.116;2022-09-09T03:19:20;97465.78;;;20.75;55.37
15489;BME280;7846;48.830;9.116;2022-09-09T03:21:47;97455.31;;;20.62;55.29
15489;BME280;7846;48.830;9.116;2022-09-09T03:24:16;97456.22;;;20.68;55.50
15489;BME280;7846;48.830;9.116;2022-09-09T03:26:42;97479.59;;;20.72;55.48
15489;BME280;7846;48.830;9.116;2022-09-09T03:29:13;97470.66;;;20.78;55.45
15489;BME280;7846;48.830;9.116;2022-09-09T03:31:39;97470.44;;;20.92;55.18
15489;BME280;7846;48.830;9.116;2022-09-09T03:34:05;97473.31;;;20.55;55.75
15489;BME280;7846;48.830;9.116;2022-09-09T03:36:31;97457.94;;;20.50;55.70
15489;BME280;7846;48.830;9.116;2022-09-09T03:38:57;97473.75;;;20.52;56.02
15489;BME280;7846;48.830;9.116;2022-09-09T03:41:24;97475.09;;;20.43;56.40
15489;BME280;7846;48.830;9.116;2022-09-09T03:43:52;97474.75;;;20.09;57.33
15489;BME280;7846;48.830;9.116;2022-09-09T03:46:18;97460.09;;;20.00;56.83
15489;BME280;7846;48.830;9.116;2022-09-09T03:48:46;97480.00;;;20.16;56.84
15489;BME280;7846;48.830;9.116;2022-09-09T03:51:11;97474.88;;;20.44;55.97
15489;BME280;7846;48.830;9.116;2022-09-09T03:53:38;97477.88;;;20.66;55.97
15489;BME280;7846;48.830;9.116;2022-09-09T03:56:04;97476.00;;;20.67;55.56
15489;BME280;7846;48.830;9.116;2022-09-09T03:58:32;97476.84;;;20.49;56.07
15489;BME280;7846;48.830;9.116;2022-09-09T04:01:05;97466.31;;;20.24;56.94
15489;BME280;7846;48.830;9.116;2022-09-09T04:03:31;97475.31;;;20.29;57.03
15489;BME280;7846;48.830;9.116;2022-09-09T04:05:58;97460.91;;;20.42;56.40
15489;BME280;7846;48.830;9.116;2022-09-09T04:08:28;97472.97;;;20.63;55.85
15489;BME280;7846;48.830;9.116;2022-09-09T04:10:58;97449.25;;;20.55;55.58
15489;BME280;7846;48.830;9.116;2022-09-09T04:13:30;97469.25;;;20.34;56.34
15489;BME280;7846;48.830;9.116;2022-09-09T04:15:58;97458.69;;;20.39;56.30
15489;BME280;7846;48.830;9.116;2022-09-09T04:18:25;97471.31;;;20.50;56.47
15489;BME280;7846;48.830;9.116;2022-09-09T04:20:52;97465.13;;;20.50;56.57
15489;BME280;7846;48.830;9.116;2022-09-09T04:23:18;97494.75;;;20.90;55.67
15489;BME280;7846;48.830;9.116;2022-09-09T04:25:46;97491.72;;;20.75;55.85
15489;BME280;7846;48.830;9.116;2022-09-09T04:28:14;97484.94;;;20.72;55.88
15489;BME280;7846;48.830;9.116;2022-09-09T04:30:41;97487.66;;;20.42;56.09
15489;BME280;7846;48.830;9.116;2022-09-09T04:33:08;97487.50;;;20.67;56.04
15489;BME280;7846;48.830;9.116;2022-09-09T04:35:34;97485.31;;;20.76;55.46
15489;BME280;7846;48.830;9.116;2022-09-09T04:38:01;97482.88;;;21.10;54.59
15489;BME280;7846;48.830;9.116;2022-09-09T04:40:28;97495.59;;;21.14;54.46
15489;BME280;7846;48.830;9.116;2022-09-09T04:42:55;97487.31;;;21.16;54.27
15489;BME280;7846;48.830;9.116;2022-09-09T04:45:22;97495.94;;;21.41;54.05
15489;BME280;7846;48.830;9.116;2022-09-09T04:47:47;97493.03;;;21.43;53.67
15489;BME280;7846;48.830;9.116;2022-09-09T04:50:14;97500.94;;;21.02;55.01
15489;BME280;7846;48.830;9.116;2022-09-09T04:52:41;97498.13;;;20.97;55.12
15489;BME280;7846;48.830;9.116;2022-09-09T04:55:07;97500.09;;;20.78;55.84
15489;BME280;7846;48.830;9.116;2022-09-09T04:57:32;97499.19;;;20.96;55.24
15489;BME280;7846;48.830;9.116;2022-09-09T04:59:59;97496.75;;;21.07;55.28
15489;BME280;7846;48.830;9.116;2022-09-09T05:02:26;97493.72;;;21.15;55.03
15489;BME280;7846;48.830;9.116;2022-09-09T05:04:51;97496.97;;;20.93;55.94
15489;BME280;7846;48.830;9.116;2022-09-09T05:07:18;97505.13;;;21.10;54.85
15489;BME280;7846;48.830;9.116;2022-09-09T05:09:44;97507.22;;;21.08;54.99
15489;BME280;7846;48.830;9.116;2022-09-09T05:12:10;97510.06;;;20.60;56.02
15489;BME280;7846;48.830;9.116;2022-09-09T05:14:37;97513.56;;;20.84;55.36
15489;BME280;7846;48.830;9.116;2022-09-09T05:17:03;97510.78;;;20.67;55.46
15489;BME280;7846;48.830;9.116;2022-09-09T05:19:29;97513.09;;;20.75;55.26
15489;BME280;7846;48.830;9.116;2022-09-09T05:21:56;97509.69;;;20.56;55.44
15489;BME280;7846;48.830;9.116;2022-09-09T05:24:22;97514.78;;;20.88;54.89
15489;BME280;7846;48.830;9.116;2022-09-09T05:26:48;97522.00;;;20.99;54.48
15489;BME280;7846;48.830;9.116;2022-09-09T05:29:14;97514.94;;;20.63;55.40
15489;BME280;7846;48.830;9.116;2022-09-09T05:31:44;97510.59;;;21.03;54.33
15489;BME280;7846;48.830;9.116;2022-09-09T05:34:09;97516.53;;;21.17;54.18
15489;BME280;7846;48.830;9.116;2022-09-09T05:36:34;97523.72;;;20.82;54.98
15489;BME280;7846;48.830;9.116;2022-09-09T05:39:00;97515.13;;;21.03;54.47
15489;BME280;7846;48.830;9.116;2022-09-09T05:41:26;97519.59;;;21.44;53.58
15489;BME280;7846;48.830;9.116;2022-09-09T05:43:53;97530.50;;;21.08;54.17
15489;BME280;7846;48.830;9.116;2022-09-09T05:46:22;97522.38;;;21.49;53.36
15489;BME280;7846;48.830;9.116;2022-09-09T05:48:49;97522.47;;;20.96;54.48
15489;BME280;7846;48.830;9.116;2022-09-09T05:51:18;97526.91;;;21.25;53.89
15489;BME280;7846;48.830;9.116;2022-09-09T05:53:45;97519.53;;;21.09;53.87
15489;BME280;7846;48.830;9.116;2022-09-09T05:56:14;97528.66;;;21.55;52.75
15489;BME280;7846;48.830;9.116;2022-09-09T05:58:43;97521.78;;;21.36;52.98
15489;BME280;7846;48.830;9.116;2022-09-09T06:01:11;97524.00;;;21.62;53.00
15489;BME280;7846;48.830;9.116;2022-09-09T06:03:40;97529.22;;;21.57;52.97
15489;BME280;7846;48.830;9.116;2022-09-09T06:06:15;97537.47;;;21.79;52.43
15489;BME280;7846;48.830;9.116;2022-09-09T06:08:43;97526.59;;;21.97;52.20
15489;BME280;7846;48.830;9.116;2022-09-09T06:11:18;97524.69;;;21.58;53.07
15489;BME280;7846;48.830;9.116;2022-09-09T06:13:50;97529.53;;;22.25;52.03
15489;BME280;7846;48.830;9.116;2022-09-09T06:16:22;97520.47;;;21.73;52.79
15489;BME280;7846;48.830;9.116;2022-09-09T06:18:54;97527.50;;;22.03;52.33
15489;BME280;7846;48.830;9.116;2022-09-09T06:21:28;97527.34;;;21.81;52.94
15489;BME280;7846;48.830;9.116;2022-09-09T06:23:54;97535.69;;;21.96;52.58
15489;BME280;7846;48.830;9.116;2022-09-09T06:26:58;97534.81;;;21.56;53.55
15489;BME280;7846;48.830;9.116;2022-09-09T06:29:42;97544.38;;;21.52;53.22
15489;BME280;7846;48.830;9.116;2022-09-09T06:32:08;97546.25;;;21.51;53.69
15489;BME280;7846;48.830;9.116;2022-09-09T06:34:34;97530.50;;;21.66;53.02
15489;BME280;7846;48.830;9.116;2022-09-09T06:37:00;97551.59;;;21.63;53.67
15489;BME280;7846;48.830;9.116;2022-09-09T06:39:26;97548.09;;;21.39;54.02
15489;BME280;7846;48.830;9.116;2022-09-09T06:41:52;97548.75;;;21.93;52.90
15489;BME280;7846;48.830;9.116;2022-09-09T06:44:19;97544.91;;;21.89;53.24
15489;BME280;7846;48.830;9.116;2022-09-09T06:46:46;97537.22;;;21.92;53.20
15489;BME280;7846;48.830;9.116;2022-09-09T06:49:13;97557.91;;;22.09;53.05
15489;BME280;7846;48.830;9.116;2022-09-09T06:51:38;97550.75;;;21.86;53.06
15489;BME280;7846;48.830;9.116;2022-09-09T06:54:08;97552.22;;;22.45;52.23
15489;BME280;7846;48.830;9.116;2022-09-09T06:59:56;97543.66;;;22.77;51.66
15489;BME280;7846;48.830;9.116;2022-09-09T07:02:22;97546.38;;;22.94;51.61
15489;BME280;7846;48.830;9.116;2022-09-09T07:04:47;97548.84;;;22.38;52.43
15489;BME280;7846;48.830;9.116;2022-09-09T07:07:16;97544.16;;;22.17;52.91
15489;BME280;7846;48.830;9.116;2022-09-09T07:09:42;97543.94;;;22.18;53.08
15489;BME280;7846;48.830;9.116;2022-09-09T07:12:08;97547.03;;;22.27;52.99
15489;BME280;7846;48.830;9.116;2022-09-09T07:14:37;97549.91;;;22.83;51.73
15489;BME280;7846;48.830;9.116;2022-09-09T07:17:04;97549.59;;;22.34;52.79
15489;BME280;7846;48.830;9.116;2022-09-09T07:19:29;97557.19;;;22.54;52.74
15489;BME280;7846;48.830;9.116;2022-09-09T07:21:55;97554.38;;;22.60;52.51
15489;BME280;7846;48.830;9.116;2022-09-09T07:24:21;97550.25;;;22.69;52.47
15489;BME280;7846;48.830;9.116;2022-09-09T07:26:46;97557.91;;;22.78;51.97
15489;BME280;7846;48.830;9.116;2022-09-09T07:29:12;97551.53;;;22.84;51.77
15489;BME280;7846;48.830;9.116;2022-09-09T07:31:42;97551.22;;;22.80;52.07
15489;BME280;7846;48.830;9.116;2022-09-09T07:34:08;97547.69;;;23.25;51.32
15489;BME280;7846;48.830;9.116;2022-09-09T07:36:37;97537.78;;;23.64;50.70
15489;BME280;7846;48.830;9.116;2022-09-09T07:39:09;97552.94;;;23.54;51.23
15489;BME280;7846;48.830;9.116;2022-09-09T07:41:40;97547.66;;;23.59;50.48
15489;BME280;7846;48.830;9.116;2022-09-09T07:44:11;97548.47;;;23.42;51.01
15489;BME280;7846;48.830;9.116;2022-09-09T07:46:38;97563.78;;;23.59;51.23
15489;BME280;7846;48.830;9.116;2022-09-09T07:49:07;97551.84;;;22.99;51.84
15489;BME280;7846;48.830;9.116;2022-09-09T07:51:45;97552.31;;;23.13;51.82
15489;BME280;7846;48.830;9.116;2022-09-09T07:54:14;97562.72;;;23.43;51.17
15489;BME280;7846;48.830;9.116;2022-09-09T07:56:40;97560.78;;;23.38;51.00
15489;BME280;7846;48.830;9.116;2022-09-09T07:59:07;97553.91;;;24.03;49.56
15489;BME280;7846;48.830;9.116;2022-09-09T08:01:37;97538.94;;;24.61;48.64
15489;BME280;7846;48.830;9.116;2022-09-09T08:04:07;97539.72;;;24.35;48.81
15489;BME280;7846;48.830;9.116;2022-09-09T08:06:39;97563.34;;;24.06;49.97
15489;BME280;7846;48.830;9.116;2022-09-09T08:09:06;97544.41;;;23.96;49.54
15489;BME280;7846;48.830;9.116;2022-09-09T08:11:35;97554.00;;;23.91;49.56
15489;BME280;7846;48.830;9.116;2022-09-09T08:14:02;97556.19;;;24.38;48.58
15489;BME280;7846;48.830;9.116;2022-09-09T08:16:30;97571.00;;;24.14;48.98
15489;BME280;7846;48.830;9.116;2022-09-09T08:18:57;97566.75;;;24.67;48.75
15489;BME280;7846;48.830;9.116;2022-09-09T08:21:25;97577.38;;;24.52;48.16
15489;BME280;7846;48.830;9.116;2022-09-09T08:23:58;97585.38;;;25.01;47.88
15489;BME280;7846;48.830;9.116;2022-09-09T08:26:32;97581.28;;;24.98;47.65
15489;BME280;7846;48.830;9.116;2022-09-09T08:28:59;97588.13;;;24.79;48.03
15489;BME280;7846;48.830;9.116;2022-09-09T08:31:30;97582.63;;;25.60;47.05
15489;BME280;7846;48.830;9.116;2022-09-09T08:33:57;97577.31;;;25.06;47.48
15489;BME280;7846;48.830;9.116;2022-09-09T08:36:27;97569.66;;;25.20;47.48
15489;BME280;7846;48.830;9.116;2022-09-09T08:38:55;97562.34;;;25.52;46.19
15489;BME280;7846;48.830;9.116;2022-09-09T08:53:17;97559.94;;;25.98;44.67
15489;BME280;7846;48.830;9.116;2022-09-09T08:55:52;97569.00;;;25.07;46.59
15489;BME280;7846;48.830;9.116;2022-09-09T09:07:00;97577.19;;;25.92;43.95
15489;BME280;7846;48.830;9.116;2022-09-09T09:09:46;97574.56;;;25.65;43.53
15489;BME280;7846;48.830;9.116;2022-09-09T09:12:19;97577.75;;;25.99;43.82
15489;BME280;7846;48.830;9.116;2022-09-09T09:14:49;97586.41;;;25.22;45.39
15489;BME280;7846;48.830;9.116;2022-09-09T09:17:20;97574.38;;;25.07;46.08
15489;BME280;7846;48.830;9.116;2022-09-09T09:19:47;97563.28;;;25.31;46.00
15489;BME280;7846;48.830;9.116;2022-09-09T09:22:42;97568.88;;;24.65;45.06
15489;BME280;7846;48.830;9.116;2022-09-09T09:25:21;97578.81;;;24.65;44.98
15489;BME280;7846;48.830;9.116;2022-09-09T09:28:20;97561.44;;;24.28;46.19
15489;BME280;7846;48.830;9.116;2022-09-09T09:30:56;97576.78;;;24.28;47.18
15489;BME280;7846;48.830;9.116;2022-09-09T09:33:48;97569.09;;;24.36;47.73
15489;BME280;7846;48.830;9.116;2022-09-09T09:36:15;97568.66;;;24.01;47.87
15489;BME280;7846;48.830;9.116;2022-09-09T09:38:53;97571.16;;;24.78;46.66
15489;BME280;7846;48.830;9.116;2022-09-09T09:43:59;97564.31;;;24.93;47.54
15489;BME280;7846;48.830;9.116;2022-09-09T09:46:26;97553.47;;;25.57;45.28
15489;BME280;7846;48.830;9.116;2022-09-09T09:49:03;97557.06;;;25.73;42.80
15489;BME280;7846;48.830;9.116;2022-09-09T09:51:31;97561.16;;;26.33;41.92
15489;BME280;7846;48.830;9.116;2022-09-09T09:56:38;97552.28;;;25.80;41.99
15489;BME280;7846;48.830;9.116;2022-09-09T09:59:05;97544.16;;;26.43;41.35
15489;BME280;7846;48.830;9.116;2022-09-09T10:01:44;97538.59;;;26.80;40.22
15489;BME280;7846;48.830;9.116;2022-09-09T10:04:16;97535.91;;;27.06;39.75
15489;BME280;7846;48.830;9.116;2022-09-09T10:06:44;97534.16;;;26.43;40.21
15489;BME280;7846;48.830;9.116;2022-09-09T10:09:30;97528.88;;;26.79;39.63
15489;BME280;7846;48.830;9.116;2022-09-09T10:12:19;97539.16;;;26.97;39.63
15489;BME280;7846;48.830;9.116;2022-09-09T10:29:10;97527.50;;;27.53;39.76
15489;BME280;7846;48.830;9.116;2022-09-09T10:35:19;97520.25;;;26.92;39.96
15489;BME280;7846;48.830;9.116;2022-09-09T10:37:41;97527.25;;;27.24;40.04
15489;BME280;7846;48.830;9.116;2022-09-09T10:42:46;97531.06;;;28.23;38.83
15489;BME280;7846;48.830;9.116;2022-09-09T10:45:41;97527.38;;;28.04;38.67
15489;BME280;7846;48.830;9.116;2022-09-09T10:51:35;97528.50;;;27.72;38.10
15489;BME280;7846;48.830;9.116;2022-09-09T10:56:43;97518.88;;;26.74;41.01
15489;BME280;7846;48.830;9.116;2022-09-09T10:59:16;97525.22;;;26.22;43.42
15489;BME280;7846;48.830;9.116;2022-09-09T11:01:47;97528.94;;;25.53;45.35
15489;BME280;7846;48.830;9.116;2022-09-09T11:04:24;97535.78;;;25.29;44.78
15489;BME280;7846;48.830;9.116;2022-09-09T11:06:56;97550.81;;;24.38;48.98
15489;BME280;7846;48.830;9.116;2022-09-09T11:11:56;97572.78;;;21.88;60.75
15489;BME280;7846;48.830;9.116;2022-09-09T11:14:32;97556.25;;;21.56;67.21
15489;BME280;7846;48.830;9.116;2022-09-09T11:17:21;97539.56;;;23.03;60.02
15489;BME280;7846;48.830;9.116;2022-09-09T11:19:49;97541.47;;;22.05;59.33
15489;BME280;7846;48.830;9.116;2022-09-09T11:22:31;97566.91;;;21.91;60.71
15489;BME280;7846;48.830;9.116;2022-09-09T11:27:36;97568.97;;;22.53;60.68
15489;BME280;7846;48.830;9.116;2022-09-09T11:30:18;97574.16;;;22.42;57.83
15489;BME280;7846;48.830;9.116;2022-09-09T11:36:01;97576.81;;;22.42;56.13
15489;BME280;7846;48.830;9.116;2022-09-09T11:38:33;97571.91;;;22.11;56.73
15489;BME280;7846;48.830;9.116;2022-09-09T11:41:06;97569.94;;;22.18;54.91
15489;BME280;7846;48.830;9.116;2022-09-09T11:43:43;97593.22;;;22.58;54.91
15489;BME280;7846;48.830;9.116;2022-09-09T11:46:10;97588.47;;;22.08;54.49
15489;BME280;7846;48.830;9.116;2022-09-09T11:48:41;97576.28;;;22.40;54.35
15489;BME280;7846;48.830;9.116;2022-09-09T11:59:04;97554.06;;;23.75;52.11
15489;BME280;7846;48.830;9.116;2022-09-09T12:01:37;97558.16;;;23.99;50.76
15489;BME280;7846;48.830;9.116;2022-09-09T12:04:14;97543.81;;;24.37;50.21
15489;BME280;7846;48.830;9.116;2022-09-09T12:06:54;97540.56;;;24.90;49.01
15489;BME280;7846;48.830;9.116;2022-09-09T12:09:52;97541.47;;;24.73;48.60
15489;BME280;7846;48.830;9.116;2022-09-09T12:12:37;97541.25;;;25.07;48.11
15489;BME280;7846;48.830;9.116;2022-09-09T12:17:53;97537.53;;;25.50;47.20
15489;BME280;7846;48.830;9.116;2022-09-09T12:20:35;97538.97;;;26.21;45.65
15489;BME280;7846;48.830;9.116;2022-09-09T12:26:03;97543.03;;;26.23;45.24
15489;BME280;7846;48.830;9.116;2022-09-09T12:29:00;97538.34;;;26.82;42.59
15489;BME280;7846;48.830;9.116;2022-09-09T12:34:14;97550.47;;;27.50;40.27
15489;BME280;7846;48.830;9.116;2022-09-09T12:36:41;97557.50;;;27.06;40.82
15489;BME280;7846;48.830;9.116;2022-09-09T12:39:34;97555.56;;;27.93;39.55
15489;BME280;7846;48.830;9.116;2022-09-09T12:42:00;97557.91;;;28.15;38.19
15489;BME280;7846;48.830;9.116;2022-09-09T12:44:29;97551.13;;;28.12;38.00
15489;BME280;7846;48.830;9.116;2022-09-09T12:46:56;97553.50;;;28.79;37.55
15489;BME280;7846;48.830;9.116;2022-09-09T12:49:31;97537.22;;;27.54;39.18
15489;BME280;7846;48.830;9.116;2022-09-09T12:52:23;97523.19;;;26.81;40.04
15489;BME280;7846;48.830;9.116;2022-09-09T12:54:50;97526.41;;;27.54;39.09
15489;BME280;7846;48.830;9.116;2022-09-09T12:57:19;97528.75;;;28.51;37.80
15489;BME280;7846;48.830;9.116;2022-09-09T12:59:47;97515.41;;;29.04;37.77
15489;BME280;7846;48.830;9.116;2022-09-09T13:04:43;97528.19;;;28.54;36.34
15489;BME280;7846;48.830;9.116;2022-09-09T13:07:11;97514.66;;;28.54;37.35
15489;BME280;7846;48.830;9.116;2022-09-09T13:09:38;97514.94;;;27.98;38.16
15489;BME280;7846;48.830;9.116;2022-09-09T13:12:04;97510.53;;;28.12;37.95
15489;BME280;7846;48.830;9.116;2022-09-09T13:14:34;97503.56;;;28.90;36.91
15489;BME280;7846;48.830;9.116;2022-09-09T13:17:04;97506.09;;;29.15;36.47
15489;BME280;7846;48.830;9.116;2022-09-09T13:19:35;97507.31;;;28.05;36.78
15489;BME280;7846;48.830;9.116;2022-09-09T13:22:12;97502.91;;;29.61;35.42
15489;BME280;7846;48.830;9.116;2022-09-09T13:24:38;97495.63;;;29.04;34.81
15489;BME280;7846;48.830;9.116;2022-09-09T13:27:20;97511.44;;;30.22;34.50
15489;BME280;7846;48.830;9.116;2022-09-09T13:29:53;97508.38;;;30.47;33.91
15489;BME280;7846;48.830;9.116;2022-09-09T13:32:24;97521.41;;;30.07;34.35
15489;BME280;7846;48.830;9.116;2022-09-09T13:35:00;97501.53;;;31.94;32.29
15489;BME280;7846;48.830;9.116;2022-09-09T13:37:38;97506.03;;;32.13;32.08
15489;BME280;7846;48.830;9.116;2022-09-09T13:40:05;97502.84;;;30.90;33.46
15489;BME280;7846;48.830;9.116;2022-09-09T13:42:34;97499.00;;;29.20;35.42
15489;BME280;7846;48.830;9.116;2022-09-09T13:45:05;97495.53;;;30.34;34.50
15489;BME280;7846;48.830;9.116;2022-09-09T13:47:35;97489.41;;;29.56;35.34
15489;BME280;7846;48.830;9.116;2022-09-09T13:50:25;97487.38;;;29.14;36.27
15489;BME280;7846;48.830;9.116;2022-09-09T13:52:58;97478.09;;;29.97;34.44
15489;BME280;7846;48.830;9.116;2022-09-09T13:55:26;97471.78;;;29.54;34.39
15489;BME280;7846;48.830;9.116;2022-09-09T13:58:01;97462.53;;;29.31;32.76
15489;BME280;7846;48.830;9.116;2022-09-09T14:00:30;97478.44;;;30.09;32.63
15489;BME280;7846;48.830;9.116;2022-09-09T14:02:56;97480.13;;;30.48;32.29
15489;BME280;7846;48.830;9.116;2022-09-09T14:05:22;97477.94;;;30.07;32.53
15489;BME280;7846;48.830;9.116;2022-09-09T14:07:48;97472.53;;;29.83;33.16
15489;BME280;7846;48.830;9.116;2022-09-09T14:10:15;97485.84;;;29.32;33.21
15489;BME280;7846;48.830;9.116;2022-09-09T14:12:40;97470.81;;;29.45;33.12
15489;BME280;7846;48.830;9.116;2022-09-09T14:15:10;97472.59;;;30.59;32.06
15489;BME280;7846;48.830;9.116;2022-09-09T14:17:35;97474.22;;;32.22;30.40
15489;BME280;7846;48.830;9.116;2022-09-09T14:20:05;97483.66;;;31.00;30.32
15489;BME280;7846;48.830;9.116;2022-09-09T14:22:34;97475.84;;;29.80;32.03
15489;BME280;7846;48.830;9.116;2022-09-09T14:25:00;97469.25;;;29.62;32.19
15489;BME280;7846;48.830;9.116;2022-09-09T14:27:25;97473.94;;;30.24;31.99
15489;BME280;7846;48.830;9.116;2022-09-09T14:29:55;97468.81;;;30.22;31.43
15489;BME280;7846;48.830;9.116;2022-09-09T14:32:20;97465.34;;;28.57;33.26
15489;BME280;7846;48.830;9.116;2022-09-09T14:34:46;97462.69;;;27.12;34.98
15489;BME280;7846;48.830;9.116;2022-09-09T14:37:16;97461.59;;;26.88;35.96
15489;BME280;7846;48.830;9.116;2022-09-09T14:39:42;97463.47;;;27.28;35.65
15489;BME280;7846;48.830;9.116;2022-09-09T14:42:10;97462.72;;;28.81;33.70
15489;BME280;7846;48.830;9.116;2022-09-09T14:44:39;97453.94;;;29.48;32.00
15489;BME280;7846;48.830;9.116;2022-09-09T14:47:05;97460.53;;;30.84;30.58
15489;BME280;7846;48.830;9.116;2022-09-09T14:49:30;97478.78;;;30.65;30.51
15489;BME280;7846;48.830;9.116;2022-09-09T14:51:56;97464.19;;;30.23;31.66
15489;BME280;7846;48.830;9.116;2022-09-09T14:54:21;97465.94;;;28.83;33.55
15489;BME280;7846;48.830;9.116;2022-09-09T14:56:49;97471.41;;;29.36;33.39
15489;BME280;7846;48.830;9.116;2022-09-09T14:59:14;97482.50;;;28.82;33.80
15489;BME280;7846;48.830;9.116;2022-09-09T15:01:40;97473.28;;;28.43;33.83
15489;BME280;7846;48.830;9.116;2022-09-09T15:04:06;97472.22;;;28.44;34.24
15489;BME280;7846;48.830;9.116;2022-09-09T15:06:34;97485.19;;;27.93;35.11
15489;BME280;7846;48.830;9.116;2022-09-09T15:09:02;97490.97;;;27.61;35.31
15489;BME280;7846;48.830;9.116;2022-09-09T15:11:30;97481.34;;;26.93;35.62
15489;BME280;7846;48.830;9.116;2022-09-09T15:13:58;97486.13;;;26.45;35.85
15489;BME280;7846;48.830;9.116;2022-09-09T15:16:27;97479.34;;;26.22;35.93
15489;BME280;7846;48.830;9.116;2022-09-09T15:18:56;97483.47;;;26.50;36.18
15489;BME280;7846;48.830;9.116;2022-09-09T15:21:26;97480.69;;;26.20;36.65
15489;BME280;7846;48.830;9.116;2022-09-09T15:23:55;97472.38;;;26.42;36.75